Time;durP1;ratioP1;P1;durP2;ratioP2;P2;SDS_P1;SDS_P2;PMS_P1;PMS_P2;Temp;Humidity;BMP_temperature;BMP_pressure;BME280_temperature;BME280_humidity;BME280_pressure;Samples;Min_cycle;Max_cycle;Signal;HPM_P1;HPM_P2
2022/01/21 00:01:20;;;;;;;3.17;2.00;;;-1.50;99.90;;;;;;5118358;28;20225;-79
2022/01/21 00:03:46;;;;;;;4.80;2.20;;;-1.40;99.90;;;;;;5119967;28;20408;-79
2022/01/21 00:06:12;;;;;;;5.17;2.27;;;-1.40;99.90;;;;;;5117798;28;20461;-79
2022/01/21 00:08:42;;;;;;;4.63;2.27;;;-1.40;99.90;;;;;;5120319;28;20190;-79
2022/01/21 00:11:09;;;;;;;5.60;2.63;;;-1.30;99.90;;;;;;5119583;28;20909;-80
2022/01/21 00:13:36;;;;;;;5.03;2.17;;;-1.40;99.90;;;;;;5118722;28;20496;-79
2022/01/21 00:16:20;;;;;;;6.03;1.87;;;-1.30;99.90;;;;;;5118685;28;20672;-80
2022/01/21 00:19:15;;;;;;;4.83;2.60;;;-1.40;99.90;;;;;;5118696;28;20445;-79
2022/01/21 00:32:33;;;;;;;4.50;1.67;;;-1.40;99.90;;;;;;5121148;28;20201;-79
2022/01/21 00:34:59;;;;;;;6.33;2.23;;;-1.50;99.90;;;;;;5124844;28;20175;-79
2022/01/21 00:37:24;;;;;;;5.63;2.13;;;-1.50;99.90;;;;;;5124230;28;20617;-79
2022/01/21 00:39:55;;;;;;;3.63;2.27;;;-1.50;99.90;;;;;;5123715;28;20187;-80
2022/01/21 00:44:47;;;;;;;4.63;1.70;;;-1.50;99.90;;;;;;5125187;27;20184;-79
2022/01/21 00:47:13;;;;;;;4.73;2.13;;;-1.50;99.90;;;;;;5125014;28;20196;-78
2022/01/21 00:49:38;;;;;;;7.10;2.40;;;-1.50;99.90;;;;;;5124222;28;20418;-78
2022/01/21 00:52:04;;;;;;;9.33;2.20;;;-1.50;99.90;;;;;;5132803;28;20257;-79
2022/01/21 00:54:30;;;;;;;4.57;2.13;;;-1.50;99.90;;;;;;5123767;28;20175;-79
2022/01/21 00:56:56;;;;;;;11.03;2.80;;;-1.30;99.90;;;;;;5122202;28;20468;-79
2022/01/21 00:59:21;;;;;;;9.03;2.73;;;-1.50;99.90;;;;;;5122132;28;20219;-79
2022/01/21 01:01:47;;;;;;;8.43;3.03;;;-1.50;99.90;;;;;;5123804;28;20195;-79
2022/01/21 01:04:13;;;;;;;8.80;2.90;;;-1.50;99.90;;;;;;5124383;28;20167;-78
2022/01/21 01:06:38;;;;;;;6.13;2.40;;;-1.50;99.90;;;;;;5124267;28;20205;-79
2022/01/21 01:09:04;;;;;;;6.67;2.50;;;-1.50;99.90;;;;;;5124753;28;20218;-79
2022/01/21 01:11:45;;;;;;;3.87;2.00;;;-1.60;99.90;;;;;;5122237;28;20608;-79
2022/01/21 01:20:03;;;;;;;5.13;2.17;;;-1.50;99.90;;;;;;5123090;28;20405;-79
2022/01/21 01:22:40;;;;;;;5.87;2.23;;;-1.50;99.90;;;;;;5122163;28;20163;-79
2022/01/21 01:27:51;;;;;;;6.80;2.60;;;-1.50;99.90;;;;;;5122784;28;20424;-79
2022/01/21 01:30:21;;;;;;;9.63;2.63;;;-1.50;99.90;;;;;;5122639;27;20405;-79
2022/01/21 01:32:48;;;;;;;5.70;2.10;;;-1.50;99.90;;;;;;5121033;28;20179;-79
2022/01/21 01:35:18;;;;;;;6.43;2.13;;;-1.50;99.90;;;;;;5120684;28;20401;-79
2022/01/21 01:50:49;;;;;;;7.47;2.13;;;-1.50;99.90;;;;;;5122736;28;20228;-79
2022/01/21 01:53:17;;;;;;;8.70;1.93;;;-1.50;99.90;;;;;;5120707;28;20179;-79
2022/01/21 01:55:44;;;;;;;4.23;1.90;;;-1.50;99.90;;;;;;5122127;28;20247;-79
2022/01/21 01:58:12;;;;;;;3.50;2.00;;;-1.50;99.90;;;;;;5122122;28;20180;-79
2022/01/21 02:00:39;;;;;;;4.07;1.90;;;-1.50;99.90;;;;;;5121666;28;20195;-79
2022/01/21 02:03:13;;;;;;;3.77;2.10;;;-0.90;99.90;;;;;;5122191;28;20210;-79
2022/01/21 02:05:40;;;;;;;8.27;2.13;;;-1.50;99.90;;;;;;5120260;28;20645;-79
2022/01/21 02:08:07;;;;;;;7.10;2.07;;;-1.50;99.90;;;;;;5122263;28;20167;-79
2022/01/21 02:10:34;;;;;;;5.47;1.97;;;-1.60;99.90;;;;;;5120705;28;20187;-79
2022/01/21 02:13:06;;;;;;;2.77;1.60;;;-1.50;99.90;;;;;;5120430;28;20193;-79
2022/01/21 02:15:35;;;;;;;4.60;1.83;;;-0.10;99.90;;;;;;5121868;28;20209;-79
2022/01/21 02:23:29;;;;;;;5.20;2.50;;;-1.50;99.90;;;;;;5121717;28;20408;-79
2022/01/21 02:25:55;;;;;;;5.40;2.20;;;-1.50;99.90;;;;;;5119529;28;20300;-79
2022/01/21 02:28:21;;;;;;;8.13;2.93;;;-1.50;99.90;;;;;;5119530;28;20886;-79
2022/01/21 02:30:58;;;;;;;8.80;2.60;;;-1.50;99.90;;;;;;5119871;28;20180;-79
2022/01/21 02:33:25;;;;;;;4.03;2.07;;;-1.50;99.90;;;;;;5119613;28;20185;-79
2022/01/21 02:35:50;;;;;;;4.73;2.27;;;-1.50;99.90;;;;;;5120150;28;20538;-79
2022/01/21 02:38:16;;;;;;;5.43;2.40;;;-1.50;99.90;;;;;;5120238;28;20168;-79
2022/01/21 02:40:43;;;;;;;5.23;2.63;;;-1.50;99.90;;;;;;5120247;28;20199;-79
2022/01/21 02:43:10;;;;;;;5.83;2.67;;;-1.40;99.90;;;;;;5118642;28;20696;-79
2022/01/21 02:45:37;;;;;;;5.30;2.30;;;-1.50;99.90;;;;;;5117831;28;20176;-79
2022/01/21 02:48:07;;;;;;;8.07;2.23;;;-1.50;99.90;;;;;;5119193;28;20174;-79
2022/01/21 02:50:33;;;;;;;6.10;2.50;;;-1.50;99.90;;;;;;5118752;28;20202;-79
2022/01/21 02:53:25;;;;;;;6.40;2.20;;;;;;;;;;5118541;28;20168;-79
2022/01/21 08:27:55;;;;;;;20.93;7.03;;;-1.90;99.90;;;;;;5132490;27;20291;-78
2022/01/21 08:30:21;;;;;;;15.70;5.80;;;-1.90;99.90;;;;;;5132314;28;20507;-78
2022/01/21 08:32:47;;;;;;;7.77;3.80;;;-1.90;99.90;;;;;;5138846;27;20192;-79
2022/01/21 08:35:12;;;;;;;6.33;3.17;;;-1.90;99.90;;;;;;5137701;27;20234;-79
2022/01/21 08:37:38;;;;;;;6.90;2.57;;;-2.00;99.90;;;;;;5136777;28;20199;-79
2022/01/21 08:40:05;;;;;;;10.50;2.83;;;-2.00;99.90;;;;;;5137261;28;20311;-79
2022/01/21 08:42:30;;;;;;;5.80;2.23;;;-2.00;99.90;;;;;;5138537;27;20186;-79
2022/01/21 08:44:56;;;;;;;5.23;2.47;;;-2.00;99.90;;;;;;5136433;28;20183;-79
2022/01/21 08:47:22;;;;;;;4.47;2.07;;;-1.90;99.90;;;;;;5137810;27;20293;-79
2022/01/21 08:49:49;;;;;;;7.30;2.10;;;-1.90;99.90;;;;;;5136613;28;20183;-79
2022/01/21 08:52:20;;;;;;;6.50;3.13;;;-1.90;99.90;;;;;;5137783;27;20185;-79
2022/01/21 08:54:47;;;;;;;17.97;6.83;;;-1.90;99.90;;;;;;5136032;28;20425;-79
2022/01/21 08:57:15;;;;;;;34.03;16.77;;;-1.60;99.90;;;;;;5136176;28;20468;-79
2022/01/21 08:59:41;;;;;;;25.87;15.67;;;-1.60;99.90;;;;;;5137558;27;20643;-79
2022/01/21 09:02:08;;;;;;;22.50;10.70;;;-1.60;99.90;;;;;;5135952;28;20421;-78
2022/01/21 09:04:33;;;;;;;14.90;8.60;;;-1.60;99.90;;;;;;5136263;28;20300;-78
2022/01/21 09:06:59;;;;;;;11.80;7.40;;;-1.50;99.90;;;;;;5135125;28;20675;-78
2022/01/21 09:09:25;;;;;;;20.37;8.27;;;-1.40;99.90;;;;;;5136419;27;20197;-78
2022/01/21 09:11:59;;;;;;;7.63;2.87;;;-1.40;99.90;;;;;;5133914;28;20575;-78
2022/01/21 09:14:25;;;;;;;10.63;4.80;;;-1.20;99.90;;;;;;5132949;28;20204;-78
2022/01/21 09:16:51;;;;;;;10.83;6.37;;;-1.10;99.90;;;;;;5132760;28;20199;-78
2022/01/21 09:19:17;;;;;;;6.13;4.17;;;-0.40;99.90;;;;;;5140851;28;20184;-78
2022/01/21 09:21:45;;;;;;;9.50;5.17;;;0.00;99.90;;;;;;5138183;27;20447;-79
2022/01/21 09:24:11;;;;;;;12.13;4.03;;;0.00;99.90;;;;;;5135905;28;20180;-79
2022/01/21 09:26:37;;;;;;;26.53;11.67;;;0.00;99.90;;;;;;5135225;28;20219;-79
2022/01/21 09:29:05;;;;;;;17.80;6.90;;;0.30;99.90;;;;;;5137280;27;20284;-78
2022/01/21 09:31:31;;;;;;;14.50;5.87;;;1.30;99.90;;;;;;5136648;28;20176;-78
2022/01/21 09:33:57;;;;;;;9.20;3.83;;;1.70;99.90;;;;;;5135685;28;20212;-79
2022/01/21 09:36:23;;;;;;;7.97;4.60;;;2.00;99.90;;;;;;5136130;28;20208;-79
2022/01/21 09:38:49;;;;;;;8.43;3.50;;;2.00;99.90;;;;;;5124659;28;20524;-79
2022/01/21 09:41:17;;;;;;;8.33;4.00;;;1.20;99.90;;;;;;5122491;28;20182;-79
2022/01/21 09:43:48;;;;;;;7.90;3.70;;;0.40;99.90;;;;;;5123489;28;20272;-79
2022/01/21 09:46:14;;;;;;;9.40;4.17;;;0.00;99.90;;;;;;5122921;28;20209;-79
2022/01/21 09:48:52;;;;;;;10.87;5.03;;;-0.10;99.90;;;;;;5121978;28;20192;-79
2022/01/21 09:51:18;;;;;;;5.13;3.17;;;0.90;99.90;;;;;;5124911;28;20177;-79
2022/01/21 09:53:44;;;;;;;8.10;3.67;;;1.50;99.90;;;;;;5122767;28;20577;-78
2022/01/21 09:56:11;;;;;;;8.50;3.43;;;1.70;99.90;;;;;;5124104;28;20225;-79
2022/01/21 09:58:39;;;;;;;7.53;3.47;;;1.50;99.90;;;;;;5124790;28;20277;-79
2022/01/21 10:01:06;;;;;;;3.53;2.63;;;1.30;99.90;;;;;;5124596;28;20183;-79
2022/01/21 10:03:33;;;;;;;8.33;4.50;;;0.90;99.90;;;;;;5122821;28;20239;-79
2022/01/21 10:06:00;;;;;;;8.37;3.80;;;0.50;99.90;;;;;;5119895;28;20202;-79
2022/01/21 10:08:28;;;;;;;5.77;3.20;;;0.20;99.90;;;;;;5120283;28;20255;-79
2022/01/21 10:10:53;;;;;;;7.90;2.80;;;0.20;99.90;;;;;;5119802;28;20184;-79
2022/01/21 10:13:20;;;;;;;6.60;3.23;;;0.10;99.90;;;;;;5121905;28;20256;-79
2022/01/21 10:15:48;;;;;;;10.83;4.70;;;0.00;99.90;;;;;;5122020;28;20212;-79
2022/01/21 10:18:20;;;;;;;5.37;2.50;;;0.20;99.90;;;;;;5120690;28;20176;-79
2022/01/21 10:21:00;;;;;;;5.50;2.67;;;0.50;99.90;;;;;;5120823;28;20179;-79
2022/01/21 10:23:28;;;;;;;8.20;3.97;;;0.70;99.90;;;;;;5120388;28;20183;-79
2022/01/21 10:25:59;;;;;;;4.80;3.17;;;0.40;99.90;;;;;;5120928;28;20292;-79
2022/01/21 10:28:25;;;;;;;8.27;4.07;;;0.00;99.90;;;;;;5122943;28;20493;-79
2022/01/21 10:31:05;;;;;;;14.37;4.60;;;-0.20;99.90;;;;;;5120572;28;20199;-79
2022/01/21 10:33:31;;;;;;;9.03;3.20;;;-0.10;99.90;;;;;;5121836;27;20604;-79
2022/01/21 10:36:23;;;;;;;4.60;3.07;;;-0.20;99.90;;;;;;5121334;28;20205;-80
2022/01/21 10:38:51;;;;;;;7.37;3.10;;;-0.30;99.90;;;;;;5121267;27;20156;-79
2022/01/21 10:41:19;;;;;;;8.97;3.90;;;-0.10;99.90;;;;;;5120557;27;20199;-79
2022/01/21 10:44:12;;;;;;;9.80;3.57;;;-0.10;99.90;;;;;;5119302;28;20211;-79
2022/01/21 10:47:03;;;;;;;7.57;3.80;;;0.00;99.90;;;;;;5118657;28;20211;-79
2022/01/21 10:49:29;;;;;;;10.63;5.27;;;0.20;99.90;;;;;;5108716;28;20420;-79
2022/01/21 10:51:55;;;;;;;11.17;6.43;;;0.40;99.90;;;;;;5118867;28;20175;-79
2022/01/21 10:54:26;;;;;;;6.47;3.57;;;0.70;99.90;;;;;;5119129;28;20176;-79
2022/01/21 10:57:13;;;;;;;8.63;3.97;;;0.80;99.90;;;;;;5118275;28;20935;-79
2022/01/21 10:59:51;;;;;;;9.47;4.13;;;0.80;99.90;;;;;;5118442;28;20179;-79
2022/01/21 11:02:47;;;;;;;8.33;4.07;;;0.50;99.90;;;;;;5118854;28;20204;-79
2022/01/21 11:05:38;;;;;;;6.93;3.10;;;0.20;99.90;;;;;;5119614;28;20186;-79
2022/01/21 11:08:10;;;;;;;8.53;3.20;;;-0.10;99.90;;;;;;5119422;28;20211;-79
2022/01/21 11:10:38;;;;;;;8.67;3.20;;;-0.10;99.90;;;;;;5118810;28;20649;-79
2022/01/21 11:13:18;;;;;;;4.17;3.43;;;-0.30;99.90;;;;;;5118881;28;20175;-79
2022/01/21 11:15:50;;;;;;;10.30;3.57;;;-0.40;99.90;;;;;;5120758;28;20166;-79
2022/01/21 11:18:19;;;;;;;7.43;4.00;;;-0.40;99.90;;;;;;5120824;28;20172;-79
2022/01/21 11:21:04;;;;;;;12.03;5.67;;;-0.20;99.90;;;;;;5119891;28;20398;-79
2022/01/21 11:23:32;;;;;;;27.63;9.93;;;0.00;99.90;;;;;;5118046;28;20401;-78
2022/01/21 11:26:04;;;;;;;11.10;4.63;;;0.70;99.90;;;;;;5121492;28;20551;-79
2022/01/21 11:28:29;;;;;;;8.50;3.57;;;1.00;99.90;;;;;;5118881;28;20405;-79
2022/01/21 11:30:55;;;;;;;9.60;3.50;;;0.90;99.90;;;;;;5118128;28;20171;-79
2022/01/21 11:33:22;;;;;;;7.73;4.27;;;0.60;99.90;;;;;;5117642;28;20655;-79
2022/01/21 11:35:50;;;;;;;9.77;4.57;;;0.40;99.90;;;;;;5117236;28;20698;-79
2022/01/21 11:38:17;;;;;;;6.27;4.63;;;0.20;99.90;;;;;;5118471;28;20405;-79
2022/01/21 11:40:44;;;;;;;8.63;4.37;;;0.00;99.90;;;;;;5116579;28;20267;-78
2022/01/21 11:43:10;;;;;;;11.13;4.97;;;-0.10;99.90;;;;;;5118489;28;20178;-80
2022/01/21 11:50:45;;;;;;;7.10;4.10;;;-0.10;99.90;;;;;;5119981;28;20897;-79
2022/01/21 11:53:11;;;;;;;7.20;3.23;;;0.20;99.90;;;;;;5120102;28;20786;-79
2022/01/21 11:55:42;;;;;;;8.87;3.93;;;0.40;99.90;;;;;;5118196;28;20183;-79
2022/01/21 11:58:17;;;;;;;6.53;3.93;;;0.60;99.90;;;;;;5118552;28;20584;-79
2022/01/21 12:00:47;;;;;;;8.57;3.73;;;0.70;99.90;;;;;;5117403;28;20413;-79
2022/01/21 12:03:13;;;;;;;5.33;3.33;;;0.90;99.90;;;;;;5119037;28;20894;-78
2022/01/21 12:05:39;;;;;;;4.80;3.10;;;1.20;99.90;;;;;;5118130;28;20470;-79
2022/01/21 12:08:05;;;;;;;7.00;3.37;;;1.10;99.90;;;;;;5120501;28;20573;-79
2022/01/21 12:10:34;;;;;;;9.10;3.40;;;0.80;99.90;;;;;;5119686;28;20166;-79
2022/01/21 12:13:08;;;;;;;12.30;5.33;;;0.70;99.90;;;;;;5118864;28;20191;-79
2022/01/21 12:15:42;;;;;;;11.73;5.00;;;0.60;99.90;;;;;;5121295;28;20147;-79
2022/01/21 12:18:20;;;;;;;10.73;4.60;;;0.80;99.90;;;;;;5120969;28;20171;-79
2022/01/21 12:20:47;;;;;;;10.67;5.63;;;0.80;99.90;;;;;;5120068;28;20253;-79
2022/01/21 12:23:15;;;;;;;9.13;4.03;;;1.00;99.90;;;;;;5122154;28;20799;-79
2022/01/21 12:26:09;;;;;;;6.03;3.90;;;1.00;99.90;;;;;;5121554;28;20175;-79
2022/01/21 12:28:35;;;;;;;7.93;4.10;;;1.00;99.90;;;;;;5124113;28;20499;-79
2022/01/21 12:31:01;;;;;;;7.17;3.23;;;1.20;99.90;;;;;;5123400;28;20397;-79
2022/01/21 12:34:00;;;;;;;5.77;3.30;;;1.30;99.90;;;;;;5121530;28;20211;-80
2022/01/21 12:36:32;;;;;;;8.03;3.53;;;1.10;99.90;;;;;;5115838;28;20226;-80
2022/01/21 12:41:24;;;;;;;5.70;2.83;;;0.80;99.90;;;;;;5118711;28;20178;-80
2022/01/21 12:43:50;;;;;;;5.00;3.30;;;0.60;99.90;;;;;;5117089;28;20171;-79
2022/01/21 12:46:26;;;;;;;5.53;3.20;;;0.40;99.90;;;;;;5117030;28;20804;-80
2022/01/21 12:48:53;;;;;;;7.43;3.03;;;0.70;99.90;;;;;;5119573;28;20172;-80
2022/01/21 12:51:33;;;;;;;5.23;2.77;;;0.90;99.90;;;;;;5115716;28;20228;-79
2022/01/21 12:56:53;;;;;;;6.80;3.73;;;0.90;99.90;;;;;;5117439;28;20202;-79
2022/01/21 12:59:23;;;;;;;9.00;3.23;;;0.80;99.90;;;;;;5117116;28;20186;-80
2022/01/21 13:01:51;;;;;;;7.30;2.63;;;0.60;99.90;;;;;;5117710;28;20209;-80
2022/01/21 13:04:28;;;;;;;9.40;3.40;;;0.60;99.90;;;;;;5116383;28;20622;-80
2022/01/21 13:07:18;;;;;;;5.30;2.80;;;0.50;99.90;;;;;;5117608;28;20218;-80
2022/01/21 13:09:56;;;;;;;12.43;4.73;;;0.30;99.90;;;;;;5115737;28;20182;-79
2022/01/21 13:12:25;;;;;;;11.80;4.73;;;0.20;99.90;;;;;;5115753;28;20168;-79
2022/01/21 13:14:53;;;;;;;8.73;4.10;;;0.30;99.90;;;;;;5119139;28;20413;-79
2022/01/21 13:17:18;;;;;;;8.00;3.10;;;0.60;99.90;;;;;;5119247;28;20675;-79
2022/01/21 13:19:49;;;;;;;8.17;2.90;;;1.70;99.90;;;;;;5120401;28;20175;-79
2022/01/21 13:22:19;;;;;;;7.07;2.90;;;0.60;99.90;;;;;;5120206;28;20178;-79
2022/01/21 13:25:08;;;;;;;5.53;2.67;;;0.60;99.90;;;;;;5118049;28;20171;-79
2022/01/21 13:27:42;;;;;;;9.33;4.20;;;0.50;99.90;;;;;;5120437;28;20344;-79
2022/01/21 13:30:11;;;;;;;11.33;3.37;;;0.50;99.90;;;;;;5130123;28;20514;-79
2022/01/21 13:32:37;;;;;;;5.60;2.87;;;0.50;99.90;;;;;;5120300;28;20431;-79
2022/01/21 13:35:30;;;;;;;5.00;2.70;;;0.70;99.90;;;;;;5119781;28;20420;-79
2022/01/21 13:38:05;;;;;;;4.87;2.30;;;0.50;99.90;;;;;;5119193;28;20785;-79
2022/01/21 13:40:37;;;;;;;6.40;2.53;;;0.40;99.90;;;;;;5119763;28;20439;-80
2022/01/21 13:43:18;;;;;;;6.20;2.47;;;0.20;99.90;;;;;;5120731;28;20220;-79
2022/01/21 13:46:01;;;;;;;8.70;3.07;;;0.20;99.90;;;;;;5118359;28;20417;-79
2022/01/21 13:48:28;;;;;;;9.77;4.80;;;0.20;99.90;;;;;;5118630;28;20409;-79
2022/01/21 13:50:55;;;;;;;10.30;4.40;;;0.30;99.90;;;;;;5119977;28;20420;-79
2022/01/21 13:53:24;;;;;;;8.80;3.80;;;0.50;99.90;;;;;;5124851;28;20410;-79
2022/01/21 13:56:01;;;;;;;10.63;4.17;;;0.60;99.90;;;;;;5129426;28;20413;-79
2022/01/21 13:58:29;;;;;;;7.13;3.40;;;0.50;99.90;;;;;;5129311;28;20416;-79
2022/01/21 14:01:13;;;;;;;16.23;6.20;;;0.50;99.90;;;;;;5120143;28;20504;-79
2022/01/21 14:03:41;;;;;;;5.73;2.97;;;0.50;99.90;;;;;;5118920;28;20409;-79
2022/01/21 14:06:19;;;;;;;4.57;2.97;;;0.50;99.90;;;;;;5119827;28;20460;-79
2022/01/21 14:08:49;;;;;;;8.00;3.50;;;0.40;99.90;;;;;;5119708;28;20419;-79
2022/01/21 14:11:25;;;;;;;7.27;3.80;;;0.40;99.90;;;;;;5118357;28;20424;-79
2022/01/21 14:13:59;;;;;;;8.40;3.23;;;0.50;99.90;;;;;;5120042;28;20469;-79
2022/01/21 14:16:39;;;;;;;6.13;2.83;;;0.30;99.90;;;;;;5118885;28;20447;-79
2022/01/21 14:19:10;;;;;;;7.83;3.93;;;0.20;99.90;;;;;;5120896;28;20421;-79
2022/01/21 14:21:36;;;;;;;11.23;5.37;;;0.10;99.90;;;;;;5119379;28;20175;-79
2022/01/21 14:24:14;;;;;;;8.30;5.23;;;0.10;99.90;;;;;;5119537;28;20421;-79
2022/01/21 14:26:50;;;;;;;9.43;3.63;;;0.00;99.90;;;;;;5120082;28;20264;-79
2022/01/21 14:29:26;;;;;;;10.13;6.67;;;0.10;99.90;;;;;;5119587;28;20191;-79
2022/01/21 14:31:52;;;;;;;7.27;3.20;;;0.10;99.90;;;;;;5119835;28;20167;-79
2022/01/21 14:34:19;;;;;;;8.00;4.37;;;0.20;99.90;;;;;;5120115;28;20444;-79
2022/01/21 14:36:58;;;;;;;5.20;3.47;;;0.20;99.90;;;;;;5119157;28;20227;-80
2022/01/21 14:39:23;;;;;;;7.93;3.10;;;0.00;99.90;;;;;;5121231;28;20192;-79
2022/01/21 14:41:51;;;;;;;6.40;2.67;;;0.00;99.90;;;;;;5120861;28;20179;-79
2022/01/21 14:44:39;;;;;;;6.27;2.83;;;0.00;99.90;;;;;;5118733;28;20189;-78
2022/01/21 14:47:09;;;;;;;7.33;2.70;;;-0.30;99.90;;;;;;5118562;28;20468;-79
2022/01/21 14:49:35;;;;;;;11.63;4.67;;;-0.30;99.90;;;;;;5119732;28;20417;-79
2022/01/21 14:52:47;;;;;;;8.03;3.30;;;-0.40;99.90;;;;;;5120567;28;20402;-79
2022/01/21 14:54:48;;;;;;;8.97;5.30;;;-0.50;99.90;;;;;;5113583;27;20414;-79
2022/01/21 14:57:14;;;;;;;8.90;5.07;;;-0.40;99.90;;;;;;5119786;28;20437;-79
2022/01/21 14:59:59;;;;;;;10.87;4.60;;;-0.40;99.90;;;;;;5121051;28;20409;-79
2022/01/21 15:02:33;;;;;;;12.37;6.93;;;-0.40;99.90;;;;;;5119886;28;20523;-79
2022/01/21 15:05:02;;;;;;;8.20;3.83;;;-0.30;99.90;;;;;;5119658;28;20901;-79
2022/01/21 15:07:29;;;;;;;10.77;4.40;;;-0.40;99.90;;;;;;5121061;28;20467;-79
2022/01/21 15:10:22;;;;;;;8.87;4.07;;;-0.50;99.90;;;;;;5121520;28;20414;-79
2022/01/21 15:15:35;;;;;;;6.63;3.40;;;-0.60;99.90;;;;;;5120721;28;20408;-78
2022/01/21 15:18:03;;;;;;;6.30;3.33;;;-0.60;99.90;;;;;;5120723;28;20425;-79
2022/01/21 15:20:35;;;;;;;14.60;7.13;;;-0.50;99.90;;;;;;5121988;28;20933;-78
2022/01/21 15:23:06;;;;;;;25.10;12.13;;;-0.40;99.90;;;;;;5120768;28;20421;-78
2022/01/21 15:25:33;;;;;;;9.03;5.17;;;-0.40;99.90;;;;;;5119127;28;20394;-78
2022/01/21 15:27:59;;;;;;;13.47;4.10;;;-0.40;99.90;;;;;;5117114;28;20898;-79
2022/01/21 15:30:26;;;;;;;10.97;4.87;;;-0.50;99.90;;;;;;5118074;28;20429;-78
2022/01/21 15:32:53;;;;;;;8.00;4.30;;;-0.60;99.90;;;;;;5116247;28;20200;-77
2022/01/21 15:35:19;;;;;;;10.83;4.73;;;-0.60;99.90;;;;;;5116346;28;20409;-78
2022/01/21 15:37:44;;;;;;;18.73;8.47;;;-0.60;99.90;;;;;;5122836;28;20441;-78
2022/01/21 15:40:10;;;;;;;8.70;5.70;;;-0.70;99.90;;;;;;5119742;28;20433;-79
2022/01/21 15:42:37;;;;;;;8.83;6.70;;;-0.70;99.90;;;;;;5121040;28;20182;-79
2022/01/21 15:45:04;;;;;;;12.80;5.57;;;-0.70;99.90;;;;;;5120933;27;20770;-78
2022/01/21 15:47:29;;;;;;;10.43;4.40;;;-0.80;99.90;;;;;;5120840;28;20461;-79
2022/01/21 15:49:56;;;;;;;6.57;4.00;;;-0.80;99.90;;;;;;5120227;28;20420;-79
2022/01/21 15:52:22;;;;;;;8.83;3.83;;;-0.90;99.90;;;;;;5120045;28;20179;-79
2022/01/21 15:54:49;;;;;;;7.97;4.63;;;-1.00;99.90;;;;;;5129797;28;20771;-78
2022/01/21 15:57:14;;;;;;;12.47;5.47;;;-1.00;99.90;;;;;;5132084;28;20438;-78
2022/01/21 15:59:40;;;;;;;4.33;2.97;;;-1.00;99.90;;;;;;5131356;28;20441;-78
2022/01/21 16:02:07;;;;;;;6.07;2.93;;;-1.00;99.90;;;;;;5120542;28;20341;-79
2022/01/21 16:04:36;;;;;;;8.13;3.17;;;-1.00;99.90;;;;;;5120195;28;20171;-79
2022/01/21 16:07:03;;;;;;;4.43;2.33;;;-1.10;99.90;;;;;;5117698;28;20990;-78
2022/01/21 16:09:29;;;;;;;10.33;3.37;;;-1.10;99.90;;;;;;5117575;28;20901;-79
2022/01/21 16:11:55;;;;;;;8.87;5.27;;;-1.10;99.90;;;;;;5118478;28;20445;-78
2022/01/21 16:14:21;;;;;;;4.17;2.60;;;-1.10;99.90;;;;;;5118000;28;20171;-78
2022/01/21 16:16:47;;;;;;;11.63;5.10;;;-1.10;99.90;;;;;;5118926;28;20238;-79
2022/01/21 16:19:14;;;;;;;12.67;6.73;;;-1.10;99.90;;;;;;5120174;28;20172;-79
2022/01/21 16:21:43;;;;;;;8.43;4.63;;;-1.10;99.90;;;;;;5120097;28;20408;-78
2022/01/21 16:24:09;;;;;;;10.13;4.67;;;-1.10;99.90;;;;;;5120087;28;20469;-79
2022/01/21 16:26:36;;;;;;;6.90;3.20;;;-1.10;99.90;;;;;;5118613;28;21041;-78
2022/01/21 16:29:02;;;;;;;8.43;3.67;;;-1.20;99.90;;;;;;5118026;28;20175;-79
2022/01/21 16:31:28;;;;;;;5.13;2.60;;;-1.20;99.90;;;;;;5120199;28;20836;-79
2022/01/21 16:33:54;;;;;;;5.97;2.60;;;-1.20;99.90;;;;;;5119620;28;20417;-77
2022/01/21 16:36:20;;;;;;;12.03;3.17;;;-1.20;99.90;;;;;;5116964;28;20199;-78
2022/01/21 16:38:46;;;;;;;13.43;6.17;;;-1.20;99.90;;;;;;5118357;28;20182;-78
2022/01/21 16:41:13;;;;;;;24.50;9.33;;;-1.20;99.90;;;;;;5118689;28;20201;-78
2022/01/21 16:43:39;;;;;;;12.27;6.73;;;-1.20;99.90;;;;;;5116701;28;20445;-78
2022/01/21 16:46:05;;;;;;;13.30;3.97;;;-1.20;99.90;;;;;;5117423;28;20464;-78
2022/01/21 16:48:31;;;;;;;19.83;9.23;;;-1.20;99.90;;;;;;5121350;28;20764;-78
2022/01/21 16:50:58;;;;;;;41.70;22.13;;;-1.10;99.90;;;;;;5120541;28;20221;-78
2022/01/21 16:53:25;;;;;;;10.63;4.47;;;-1.20;99.90;;;;;;5121156;28;20508;-78
2022/01/21 16:55:51;;;;;;;7.93;3.97;;;-1.20;99.90;;;;;;5123125;28;20410;-77
2022/01/21 16:58:17;;;;;;;10.63;3.27;;;-1.20;99.90;;;;;;5121913;28;20903;-78
2022/01/21 17:00:43;;;;;;;5.50;3.27;;;-1.20;99.90;;;;;;5122421;28;20413;-78
2022/01/21 17:03:09;;;;;;;8.27;2.57;;;-1.20;99.90;;;;;;5122528;28;20216;-78
2022/01/21 17:05:35;;;;;;;7.53;3.93;;;-1.20;99.90;;;;;;5124360;28;20164;-78
2022/01/21 17:08:03;;;;;;;7.07;3.67;;;-1.20;99.90;;;;;;5123789;28;20460;-78
2022/01/21 17:10:29;;;;;;;17.00;6.77;;;-1.20;99.90;;;;;;5124936;28;20724;-78
2022/01/21 17:12:55;;;;;;;10.17;5.20;;;-1.20;99.90;;;;;;5122390;28;20410;-78
2022/01/21 17:15:22;;;;;;;8.67;4.37;;;-1.10;99.90;;;;;;5122612;28;20164;-78
2022/01/21 17:17:48;;;;;;;8.07;4.00;;;-1.10;99.90;;;;;;5121240;28;20437;-78
2022/01/21 17:20:15;;;;;;;9.27;3.73;;;-1.10;99.90;;;;;;5122398;28;20421;-78
2022/01/21 17:22:41;;;;;;;10.30;4.03;;;-1.10;99.90;;;;;;5121932;28;20413;-78
2022/01/21 17:25:08;;;;;;;6.53;2.80;;;-1.10;99.90;;;;;;5124825;28;20440;-78
2022/01/21 17:27:34;;;;;;;7.90;4.60;;;-1.10;99.90;;;;;;5124385;28;20510;-78
2022/01/21 17:30:00;;;;;;;16.17;6.40;;;-1.10;99.90;;;;;;5125007;28;20512;-79
2022/01/21 17:32:26;;;;;;;18.00;7.67;;;-1.20;99.90;;;;;;5121910;28;20171;-78
2022/01/21 17:34:56;;;;;;;16.47;7.73;;;-1.30;99.90;;;;;;5121926;28;20486;-78
2022/01/21 17:37:23;;;;;;;22.67;8.83;;;-1.20;99.90;;;;;;5119729;28;20437;-78
2022/01/21 17:39:49;;;;;;;14.37;5.03;;;-1.20;99.90;;;;;;5119514;28;20424;-78
2022/01/21 17:42:14;;;;;;;19.00;6.63;;;-1.20;99.90;;;;;;5120201;28;20405;-78
2022/01/21 17:44:41;;;;;;;26.80;5.67;;;-1.30;99.90;;;;;;5126827;28;20504;-79
2022/01/21 17:47:07;;;;;;;4.33;2.30;;;-1.30;99.90;;;;;;5123184;28;20228;-78
2022/01/21 17:49:35;;;;;;;4.07;2.60;;;-1.30;99.90;;;;;;5126556;28;20466;-79
2022/01/21 17:52:02;;;;;;;5.07;2.23;;;-1.30;99.90;;;;;;5127036;28;20458;-78
2022/01/21 17:54:27;;;;;;;3.23;2.13;;;-1.30;99.90;;;;;;5132235;28;20414;-78
2022/01/21 17:56:53;;;;;;;8.20;3.30;;;-1.30;99.90;;;;;;5131015;28;20510;-78
2022/01/21 17:59:18;;;;;;;4.33;2.77;;;-1.30;99.90;;;;;;5130745;28;20203;-78
2022/01/21 18:01:44;;;;;;;4.23;2.20;;;-1.30;99.90;;;;;;5126192;28;20179;-79
2022/01/21 18:04:11;;;;;;;3.93;2.63;;;-1.30;99.90;;;;;;5125187;28;20180;-79
2022/01/21 18:06:37;;;;;;;4.50;2.50;;;-1.30;99.90;;;;;;5125824;28;20788;-79
2022/01/21 18:09:17;;;;;;;8.70;3.03;;;-1.30;99.90;;;;;;5124124;28;20425;-79
2022/01/21 18:11:45;;;;;;;6.07;2.33;;;-1.30;99.90;;;;;;5041677;28;20949;-79
2022/01/21 18:14:11;;;;;;;9.90;2.97;;;-1.20;99.90;;;;;;5061395;28;20424;-79
2022/01/21 18:16:38;;;;;;;8.27;3.70;;;-1.40;99.90;;;;;;5061030;28;20459;-79
2022/01/21 18:19:19;;;;;;;3.07;2.03;;;-0.20;99.90;;;;;;5063222;28;20423;-79
2022/01/21 18:21:45;;;;;;;4.97;2.13;;;-0.90;99.90;;;;;;5063260;28;20440;-79
2022/01/21 18:24:10;;;;;;;6.43;2.17;;;-1.40;99.90;;;;;;5061596;28;20419;-79
2022/01/21 18:26:36;;;;;;;11.13;2.33;;;-1.40;99.90;;;;;;5063275;28;20209;-79
2022/01/21 18:29:04;;;;;;;11.13;2.90;;;-1.20;99.90;;;;;;5061632;28;20185;-79
2022/01/21 18:31:30;;;;;;;4.83;1.90;;;-1.40;99.90;;;;;;5060479;28;20197;-79
2022/01/21 18:33:56;;;;;;;5.57;2.30;;;-1.30;99.90;;;;;;5061108;28;20429;-79
2022/01/21 18:36:21;;;;;;;5.00;2.57;;;0.30;99.90;;;;;;5063466;28;20581;-79
2022/01/21 18:38:47;;;;;;;3.77;2.30;;;-1.30;99.90;;;;;;5063582;28;20435;-80
2022/01/21 18:41:16;;;;;;;12.13;4.40;;;-1.30;99.90;;;;;;5061193;28;20186;-79
2022/01/21 18:43:42;;;;;;;5.97;2.93;;;-1.30;99.90;;;;;;5062175;28;20235;-79
2022/01/21 18:46:11;;;;;;;5.53;2.13;;;-1.30;99.90;;;;;;5063042;28;20539;-79
2022/01/21 18:48:38;;;;;;;2.90;1.80;;;-1.40;99.90;;;;;;5064962;28;20420;-79
2022/01/21 18:51:10;;;;;;;4.90;2.10;;;-1.40;99.90;;;;;;5063597;28;20485;-81
2022/01/21 18:53:38;;;;;;;5.27;2.43;;;-1.40;99.90;;;;;;5061422;28;20415;-79
2022/01/21 18:56:07;;;;;;;4.90;1.83;;;-1.40;99.90;;;;;;5062610;28;20519;-79
2022/01/21 18:58:37;;;;;;;3.17;2.13;;;-1.40;99.90;;;;;;5061321;28;20430;-78
2022/01/21 19:01:04;;;;;;;8.03;2.73;;;-1.40;99.90;;;;;;5061688;28;20389;-79
2022/01/21 19:03:31;;;;;;;8.70;3.37;;;-1.50;99.90;;;;;;5060706;28;20416;-79
2022/01/21 19:05:57;;;;;;;4.37;2.27;;;-1.50;99.90;;;;;;5058984;28;20412;-79
2022/01/21 19:08:25;;;;;;;4.10;2.00;;;-1.50;99.90;;;;;;5060782;28;20413;-79
2022/01/21 19:10:51;;;;;;;2.83;1.93;;;-1.50;99.90;;;;;;5063297;28;20499;-80
2022/01/21 19:13:17;;;;;;;5.67;1.90;;;-1.40;99.90;;;;;;5062512;28;20447;-79
2022/01/21 19:15:42;;;;;;;6.43;3.03;;;-1.40;99.90;;;;;;5062464;28;20207;-80
2022/01/21 19:18:09;;;;;;;6.93;2.80;;;-1.30;99.90;;;;;;5061391;28;20643;-79
2022/01/21 19:20:36;;;;;;;22.13;11.07;;;-1.50;99.90;;;;;;5062094;28;20192;-79
2022/01/21 19:23:05;;;;;;;11.73;5.50;;;-1.50;99.90;;;;;;5061027;28;20831;-79
2022/01/21 19:28:14;;;;;;;8.90;4.07;;;-1.50;99.90;;;;;;5062475;28;20533;-79